createdAt,value
2019-03-12T00:01:22.837Z,2.60
2019-03-12T00:03:53.101Z,2.60
2019-03-12T00:06:23.367Z,2.60
2019-03-12T00:08:53.637Z,2.60
2019-03-12T00:11:23.931Z,2.70
2019-03-12T00:13:54.326Z,2.70
2019-03-12T00:16:24.638Z,2.70
2019-03-12T00:18:54.902Z,2.80
2019-03-12T00:21:25.330Z,2.80
2019-03-12T00:23:56.585Z,2.70
2019-03-12T00:26:26.819Z,2.70
2019-03-12T00:28:57.054Z,2.70
2019-03-12T00:31:27.315Z,2.70
2019-03-12T00:33:57.654Z,2.70
2019-03-12T00:36:28.105Z,2.60
2019-03-12T00:38:58.366Z,2.60
2019-03-12T00:41:28.618Z,2.60
2019-03-12T00:43:59.134Z,2.50
2019-03-12T00:46:29.576Z,2.40
2019-03-12T00:48:59.854Z,2.50
2019-03-12T00:51:30.106Z,2.50
2019-03-12T00:54:00.376Z,2.50
2019-03-12T00:56:30.706Z,2.60
2019-03-12T00:59:01.990Z,2.60
2019-03-12T01:01:32.346Z,2.60
2019-03-12T01:04:02.694Z,2.60
2019-03-12T01:06:33.185Z,2.60
2019-03-12T01:09:06.434Z,2.70
2019-03-12T01:11:38.073Z,2.70
2019-03-12T01:14:08.318Z,2.70
2019-03-12T01:16:38.734Z,2.80
2019-03-12T01:19:08.965Z,2.80
2019-03-12T01:21:39.310Z,2.80
2019-03-12T01:24:09.550Z,2.80
2019-03-12T01:26:39.882Z,2.80
2019-03-12T01:29:10.122Z,2.80
2019-03-12T01:31:40.438Z,2.90
2019-03-12T01:34:11.067Z,2.80
2019-03-12T01:36:41.298Z,2.90
2019-03-12T01:39:11.698Z,2.90
2019-03-12T01:41:41.986Z,3.10
2019-03-12T01:44:12.295Z,3.20
2019-03-12T01:46:42.675Z,3.20
2019-03-12T01:49:12.946Z,3.20
2019-03-12T01:51:43.204Z,3.30
2019-03-12T01:54:13.466Z,3.30
2019-03-12T01:56:43.714Z,3.30
2019-03-12T01:59:14.052Z,3.30
2019-03-12T02:01:44.370Z,3.30
2019-03-12T02:04:15.201Z,3.30
2019-03-12T02:06:45.653Z,3.30
2019-03-12T02:09:16.011Z,3.30
2019-03-12T02:11:46.669Z,3.30
2019-03-12T02:14:27.836Z,3.30
2019-03-12T02:16:58.229Z,3.30
2019-03-12T02:19:28.569Z,3.30
2019-03-12T02:21:58.813Z,3.30
2019-03-12T02:24:29.169Z,3.30
2019-03-12T02:26:59.549Z,3.20
2019-03-12T02:29:29.949Z,3.20
2019-03-12T02:32:00.337Z,3.30
2019-03-12T02:34:31.142Z,3.20
2019-03-12T02:37:03.404Z,3.20
2019-03-12T02:39:33.853Z,3.30
2019-03-12T02:42:06.445Z,3.30
2019-03-12T02:44:36.776Z,3.20
2019-03-12T02:47:07.303Z,3.20
2019-03-12T02:49:37.593Z,3.20
2019-03-12T02:52:08.013Z,3.20
2019-03-12T02:54:38.272Z,3.20
2019-03-12T02:57:08.550Z,3.20
2019-03-12T02:59:38.822Z,3.10
2019-03-12T03:02:09.159Z,3.10
2019-03-12T03:04:39.561Z,3.00
2019-03-12T03:07:27.605Z,3.00
2019-03-12T03:09:58.018Z,3.10
2019-03-12T03:12:28.373Z,3.00
2019-03-12T03:14:58.881Z,3.10
2019-03-12T03:17:29.310Z,3.10
2019-03-12T03:19:59.593Z,3.20
2019-03-12T03:22:29.858Z,3.20
2019-03-12T03:25:00.286Z,3.20
2019-03-12T03:27:30.966Z,3.20
2019-03-12T03:30:02.756Z,3.20
2019-03-12T03:32:35.114Z,3.20
2019-03-12T03:35:06.041Z,3.20
2019-03-12T03:37:36.590Z,3.20
2019-03-12T03:40:07.074Z,3.20
2019-03-12T03:42:37.432Z,3.20
2019-03-12T03:45:07.947Z,3.20
2019-03-12T03:47:38.456Z,3.20
2019-03-12T03:50:09.197Z,3.10
2019-03-12T03:52:39.535Z,3.10
2019-03-12T03:55:11.974Z,3.20
2019-03-12T03:57:42.429Z,3.20
2019-03-12T04:00:15.984Z,3.20
2019-03-12T04:02:46.390Z,3.20
2019-03-12T04:05:16.818Z,3.30
2019-03-12T04:07:47.291Z,3.30
2019-03-12T04:10:17.766Z,3.30
2019-03-12T04:12:48.539Z,3.40
2019-03-12T04:15:21.690Z,3.40
2019-03-12T04:17:51.964Z,3.50
2019-03-12T04:20:22.210Z,3.50
2019-03-12T04:22:52.522Z,3.50
2019-03-12T04:25:22.956Z,3.60
2019-03-12T04:27:53.350Z,3.60
2019-03-12T04:30:23.769Z,3.60
2019-03-12T04:32:54.121Z,3.70
2019-03-12T04:35:24.566Z,3.60
2019-03-12T04:37:55.377Z,3.70
2019-03-12T04:40:25.809Z,3.70
2019-03-12T04:42:56.121Z,3.60
2019-03-12T04:45:26.469Z,3.60
2019-03-12T04:47:56.738Z,3.60
2019-03-12T04:50:27.017Z,3.70
2019-03-12T04:52:57.273Z,3.70
2019-03-12T04:55:27.524Z,3.80
2019-03-12T04:57:57.781Z,3.80
2019-03-12T05:00:28.109Z,3.80
2019-03-12T05:02:58.434Z,3.80
2019-03-12T05:05:28.769Z,3.90
2019-03-12T05:07:59.049Z,3.90
2019-03-12T05:10:29.304Z,3.90
2019-03-12T05:12:59.578Z,3.90
2019-03-12T05:15:29.923Z,3.90
2019-03-12T05:18:00.250Z,3.90
2019-03-12T05:20:30.517Z,4.00
2019-03-12T05:23:00.797Z,4.00
2019-03-12T05:25:32.278Z,3.90
2019-03-12T05:28:02.529Z,3.90
2019-03-12T05:30:32.789Z,3.90
2019-03-12T05:33:03.770Z,3.90
2019-03-12T05:35:34.142Z,3.90
2019-03-12T05:38:04.961Z,3.90
2019-03-12T05:40:35.214Z,3.90
2019-03-12T05:43:05.509Z,3.90
2019-03-12T05:45:35.758Z,4.00
2019-03-12T05:48:06.021Z,4.00
2019-03-12T05:50:36.297Z,4.00
2019-03-12T05:53:14.153Z,4.00
2019-03-12T05:55:44.490Z,4.10
2019-03-12T05:58:14.725Z,4.10
2019-03-12T06:00:44.997Z,4.20
2019-03-12T06:03:15.265Z,4.20
2019-03-12T06:05:46.561Z,4.20
2019-03-12T06:08:16.923Z,4.30
2019-03-12T06:10:47.257Z,4.30
2019-03-12T06:13:17.541Z,4.30
2019-03-12T06:15:47.852Z,4.30
2019-03-12T06:18:18.129Z,4.40
2019-03-12T06:20:48.401Z,4.40
2019-03-12T06:23:18.677Z,4.40
2019-03-12T06:25:48.934Z,4.50
2019-03-12T06:28:19.300Z,4.50
2019-03-12T06:31:01.789Z,4.50
2019-03-12T06:33:48.397Z,4.60
2019-03-12T06:36:37.733Z,4.60
2019-03-12T06:39:20.107Z,4.60
2019-03-12T06:42:12.461Z,4.70
2019-03-12T06:44:56.076Z,4.70
2019-03-12T06:47:51.457Z,4.80
2019-03-12T06:50:39.716Z,4.80
2019-03-12T06:53:37.985Z,4.90
2019-03-12T06:56:27.948Z,4.90
2019-03-12T06:59:26.142Z,5.00
2019-03-12T07:02:14.117Z,5.00
2019-03-12T07:04:50.494Z,5.00
2019-03-12T07:07:45.881Z,5.10
2019-03-12T07:10:34.704Z,5.10
2019-03-12T07:13:33.405Z,5.10
2019-03-12T07:16:08.296Z,5.10
2019-03-12T07:18:56.493Z,5.10
2019-03-12T07:21:45.821Z,5.20
2019-03-12T07:24:26.414Z,5.30
2019-03-12T07:27:14.336Z,5.30
2019-03-12T07:29:55.153Z,5.40
2019-03-12T07:32:43.150Z,5.40
2019-03-12T07:35:22.722Z,5.40
2019-03-12T07:38:06.233Z,5.50
2019-03-12T07:41:24.565Z,5.50
2019-03-12T07:43:57.229Z,5.50
2019-03-12T07:46:49.573Z,5.60
2019-03-12T07:49:43.130Z,5.60
2019-03-12T07:52:41.670Z,5.60
2019-03-12T07:55:31.217Z,5.70
2019-03-12T07:58:19.273Z,5.70
2019-03-12T08:01:08.619Z,5.70
2019-03-12T08:03:58.982Z,5.80
2019-03-12T08:06:33.670Z,6.00
2019-03-12T08:09:15.980Z,6.00
2019-03-12T08:11:51.573Z,6.10
2019-03-12T08:14:35.197Z,6.20
2019-03-12T08:17:34.421Z,6.30
2019-03-12T08:20:22.081Z,6.30
2019-03-12T08:23:16.950Z,6.40
2019-03-12T08:26:05.117Z,6.40
2019-03-12T08:28:41.449Z,6.60
2019-03-12T08:31:19.664Z,6.60
2019-03-12T08:34:03.773Z,6.70
2019-03-12T08:36:40.418Z,6.70
2019-03-12T08:39:28.085Z,6.80
2019-03-12T08:42:26.543Z,6.80
2019-03-12T08:45:15.459Z,6.90
2019-03-12T08:47:59.985Z,6.90
2019-03-12T08:50:49.105Z,7.00
2019-03-12T08:53:41.261Z,7.00
2019-03-12T08:56:33.378Z,7.00
2019-03-12T08:59:25.733Z,7.00
2019-03-12T09:02:03.377Z,7.10
2019-03-12T09:04:50.882Z,7.20
2019-03-12T09:07:31.241Z,7.30
2019-03-12T09:10:15.285Z,7.30
2019-03-12T09:13:16.702Z,7.40
2019-03-12T09:16:07.013Z,7.50
2019-03-12T09:18:51.077Z,7.40
2019-03-12T09:21:49.274Z,7.40
2019-03-12T09:24:41.686Z,7.40
2019-03-12T09:27:40.187Z,7.40
2019-03-12T09:30:18.051Z,7.40
2019-03-12T09:33:05.361Z,7.50
2019-03-12T09:35:41.337Z,7.50
2019-03-12T09:38:25.885Z,7.50
2019-03-12T09:41:13.913Z,7.60
2019-03-12T09:44:03.018Z,7.60
2019-03-12T09:46:52.344Z,7.70
2019-03-12T09:49:28.056Z,7.80
2019-03-12T09:52:27.519Z,7.80
2019-03-12T09:55:09.667Z,7.90
2019-03-12T09:57:48.752Z,8.00
2019-03-12T10:00:47.155Z,8.10
2019-03-12T10:03:24.210Z,8.20
2019-03-12T10:06:16.624Z,8.20
2019-03-12T10:09:04.609Z,8.30
2019-03-12T10:11:58.205Z,8.50
2019-03-12T10:14:38.735Z,8.50
2019-03-12T10:17:26.995Z,8.70
2019-03-12T10:20:15.261Z,8.80
2019-03-12T10:23:03.271Z,9.00
2019-03-12T10:25:51.343Z,9.10
2019-03-12T10:28:35.539Z,9.20
2019-03-12T10:31:24.064Z,9.30
2019-03-12T10:34:10.588Z,9.20
2019-03-12T10:37:11.987Z,9.20
2019-03-12T10:39:59.901Z,9.20
2019-03-12T10:42:39.115Z,9.20
2019-03-12T10:45:31.680Z,9.30
2019-03-12T10:48:02.656Z,9.40
2019-03-12T10:50:33.151Z,9.50
2019-03-12T10:53:05.120Z,9.50
2019-03-12T10:55:35.563Z,9.50
2019-03-12T10:58:05.964Z,9.50
2019-03-12T11:00:37.571Z,9.60
2019-03-12T11:03:07.960Z,9.60
2019-03-12T11:05:45.796Z,9.60
2019-03-12T11:08:10.420Z,9.60
2019-03-12T11:10:40.739Z,9.70
2019-03-12T11:13:14.229Z,9.80
2019-03-12T11:15:42.988Z,9.80
2019-03-12T11:18:13.336Z,9.80
2019-03-12T11:20:43.647Z,9.90
2019-03-12T11:23:13.912Z,9.90
2019-03-12T11:25:44.312Z,9.90
2019-03-12T11:28:14.657Z,9.80
2019-03-12T11:30:44.985Z,9.80
2019-03-12T11:33:15.332Z,9.80
2019-03-12T11:35:45.732Z,9.90
2019-03-12T11:38:16.024Z,10.00
2019-03-12T11:40:46.437Z,10.10
2019-03-12T11:43:16.824Z,10.20
2019-03-12T11:45:47.167Z,10.30
2019-03-12T11:48:17.576Z,10.40
2019-03-12T11:50:47.934Z,10.60
2019-03-12T11:53:18.260Z,10.70
2019-03-12T11:55:48.584Z,10.60
2019-03-12T11:58:18.924Z,10.60
2019-03-12T12:00:55.161Z,10.70
2019-03-12T12:03:25.542Z,10.80
2019-03-12T12:05:55.876Z,10.90
2019-03-12T12:08:26.224Z,10.90
2019-03-12T12:10:56.577Z,10.70
2019-03-12T12:13:26.921Z,10.80
2019-03-12T12:15:57.255Z,10.80
2019-03-12T12:18:27.724Z,10.70
2019-03-12T12:20:58.056Z,10.60
2019-03-12T12:23:28.324Z,10.50
2019-03-12T12:25:58.599Z,10.40
2019-03-12T12:28:28.859Z,10.50
2019-03-12T12:30:59.204Z,10.50
2019-03-12T12:33:29.490Z,10.50
2019-03-12T12:35:59.812Z,10.50
2019-03-12T12:38:32.488Z,10.50
2019-03-12T12:41:02.888Z,10.60
2019-03-12T12:43:34.384Z,10.60
2019-03-12T12:46:04.726Z,10.60
2019-03-12T12:48:35.014Z,10.70
2019-03-12T12:51:05.398Z,10.60
2019-03-12T12:53:35.896Z,10.60
2019-03-12T12:56:06.382Z,10.60
2019-03-12T12:58:36.736Z,10.60
2019-03-12T13:01:07.120Z,10.60
2019-03-12T13:03:37.469Z,10.50
2019-03-12T13:06:07.759Z,10.50
2019-03-12T13:08:39.064Z,10.40
2019-03-12T13:11:09.324Z,10.40
2019-03-12T13:13:39.600Z,10.40
2019-03-12T13:16:10.017Z,10.40
2019-03-12T13:18:40.303Z,10.40
2019-03-12T13:21:10.574Z,10.30
2019-03-12T13:23:40.904Z,10.30
2019-03-12T13:26:11.312Z,10.40
2019-03-12T13:28:44.820Z,10.30
2019-03-12T13:31:13.869Z,10.40
2019-03-12T13:33:44.143Z,10.40
2019-03-12T13:36:17.284Z,10.40
2019-03-12T13:38:48.435Z,10.30
2019-03-12T13:41:19.380Z,10.30
2019-03-12T13:43:49.787Z,10.30
2019-03-12T13:46:20.287Z,10.30
2019-03-12T13:48:50.729Z,10.40
2019-03-12T13:51:20.994Z,10.40
2019-03-12T13:53:51.332Z,10.40
2019-03-12T13:56:21.620Z,10.40
2019-03-12T13:58:51.994Z,10.30
2019-03-12T14:01:22.391Z,10.20
2019-03-12T14:03:52.757Z,10.10
2019-03-12T14:06:23.022Z,10.10
2019-03-12T14:08:53.356Z,10.10
2019-03-12T14:11:23.692Z,10.00
2019-03-12T14:13:54.027Z,10.00
2019-03-12T14:16:24.411Z,10.00
2019-03-12T14:18:54.727Z,9.90
2019-03-12T14:21:25.087Z,9.90
2019-03-12T14:23:58.755Z,9.90
2019-03-12T14:26:29.203Z,9.90
2019-03-12T14:28:59.608Z,9.90
2019-03-12T14:31:30.068Z,10.00
2019-03-12T14:34:00.459Z,10.00
2019-03-12T14:36:31.035Z,10.00
2019-03-12T14:39:01.376Z,10.00
2019-03-12T14:41:33.455Z,10.00
2019-03-12T14:44:03.855Z,10.10
2019-03-12T14:46:34.294Z,10.10
2019-03-12T14:49:06.595Z,10.10
2019-03-12T14:52:03.834Z,10.20
2019-03-12T14:54:34.123Z,10.20
2019-03-12T14:57:05.662Z,10.20
2019-03-12T14:59:36.029Z,10.10
2019-03-12T15:02:06.706Z,10.10
2019-03-12T15:04:37.108Z,10.10
2019-03-12T15:07:07.452Z,10.00
2019-03-12T15:09:37.787Z,9.90
2019-03-12T15:12:11.646Z,9.90
2019-03-12T15:14:41.145Z,9.80
2019-03-12T15:17:11.463Z,9.80
2019-03-12T15:19:41.719Z,9.80
2019-03-12T15:22:11.991Z,9.80
2019-03-12T15:24:42.319Z,9.80
2019-03-12T15:27:12.570Z,9.70
2019-03-12T15:29:42.923Z,9.80
2019-03-12T15:32:13.257Z,9.80
2019-03-12T15:34:43.615Z,9.80
2019-03-12T15:37:13.862Z,9.80
2019-03-12T15:39:44.211Z,9.80
2019-03-12T15:42:14.526Z,9.80
2019-03-12T15:44:44.919Z,9.80
2019-03-12T15:47:15.179Z,9.70
2019-03-12T15:49:45.469Z,9.70
2019-03-12T15:52:15.713Z,9.70
2019-03-12T15:54:46.031Z,9.70
2019-03-12T15:57:16.288Z,9.70
2019-03-12T15:59:46.543Z,9.70
2019-03-12T16:02:16.785Z,9.70
2019-03-12T16:04:47.126Z,9.70
2019-03-12T16:07:17.445Z,9.70
2019-03-12T16:09:47.776Z,9.70
2019-03-12T16:12:19.767Z,9.80
2019-03-12T16:14:50.129Z,9.70
2019-03-12T16:17:20.392Z,9.60
2019-03-12T16:19:50.699Z,9.60
2019-03-12T16:22:21.067Z,9.60
2019-03-12T16:24:51.394Z,9.60
2019-03-12T16:27:22.662Z,9.50
2019-03-12T16:29:53.975Z,9.60
2019-03-12T16:32:24.235Z,9.50
2019-03-12T16:34:54.527Z,9.50
2019-03-12T16:37:26.571Z,9.50
2019-03-12T16:39:56.827Z,9.50
2019-03-12T16:42:34.859Z,9.40
2019-03-12T16:44:59.403Z,9.40
2019-03-12T16:47:29.675Z,9.40
2019-03-12T16:49:59.929Z,9.40
2019-03-12T16:52:32.679Z,9.40
2019-03-12T16:55:03.484Z,9.40
2019-03-12T16:57:33.743Z,9.30
2019-03-12T17:00:08.698Z,9.30
2019-03-12T17:02:39.737Z,9.30
2019-03-12T17:05:10.683Z,9.30
2019-03-12T17:07:41.039Z,9.40
2019-03-12T17:10:11.603Z,9.40
2019-03-12T17:12:41.915Z,9.50
2019-03-12T17:15:13.608Z,9.60
2019-03-12T17:17:44.026Z,9.60
2019-03-12T17:20:14.606Z,9.50
2019-03-12T17:22:45.072Z,9.40
2019-03-12T17:25:15.424Z,9.40
2019-03-12T17:27:45.735Z,9.40
2019-03-12T17:30:17.045Z,9.40
2019-03-12T17:32:47.531Z,9.30
2019-03-12T17:35:20.531Z,9.30
2019-03-12T17:37:50.846Z,9.20
2019-03-12T17:40:21.396Z,9.10
2019-03-12T17:42:51.707Z,9.10
2019-03-12T17:45:22.232Z,9.20
2019-03-12T17:47:52.644Z,9.20
2019-03-12T17:50:22.991Z,9.20
2019-03-12T17:52:53.415Z,9.30
2019-03-12T17:55:23.732Z,9.30
2019-03-12T17:57:54.080Z,9.20
2019-03-12T18:00:28.298Z,9.20
2019-03-12T18:02:58.317Z,9.10
2019-03-12T18:05:28.569Z,9.10
2019-03-12T18:07:58.892Z,9.10
2019-03-12T18:10:29.247Z,9.10
2019-03-12T18:12:59.572Z,9.10
2019-03-12T18:15:29.956Z,9.00
2019-03-12T18:18:00.371Z,9.00
2019-03-12T18:20:30.697Z,9.00
2019-03-12T18:23:02.733Z,9.00
2019-03-12T18:25:33.127Z,9.00
2019-03-12T18:28:05.494Z,9.10
2019-03-12T18:30:35.832Z,9.10
2019-03-12T18:33:06.100Z,9.10
2019-03-12T18:35:37.444Z,9.10
2019-03-12T18:38:07.770Z,9.10
2019-03-12T18:40:38.096Z,9.00
2019-03-12T18:43:08.464Z,9.00
2019-03-12T18:45:38.815Z,9.10
2019-03-12T18:48:09.067Z,9.10
2019-03-12T18:50:39.320Z,9.00
2019-03-12T18:53:09.567Z,9.00
2019-03-12T18:55:55.415Z,9.00
2019-03-12T18:58:44.960Z,8.90
2019-03-12T19:01:16.259Z,8.70
2019-03-12T19:03:46.591Z,8.60
2019-03-12T19:06:16.888Z,8.50
2019-03-12T19:08:48.035Z,8.50
2019-03-12T19:11:19.084Z,8.60
2019-03-12T19:13:49.521Z,8.60
2019-03-12T19:16:19.879Z,8.60
2019-03-12T19:18:50.155Z,8.60
2019-03-12T19:21:21.525Z,8.70
2019-03-12T19:23:51.852Z,8.70
2019-03-12T19:26:22.487Z,8.70
2019-03-12T19:28:52.732Z,8.70
2019-03-12T19:31:45.431Z,8.70
2019-03-12T19:34:21.347Z,8.70
2019-03-12T19:36:51.720Z,8.60
2019-03-12T19:39:22.139Z,8.50
2019-03-12T19:41:52.581Z,8.50
2019-03-12T19:44:42.132Z,8.40
2019-03-12T19:47:12.505Z,8.40
2019-03-12T19:49:42.900Z,8.30
2019-03-12T19:52:13.308Z,8.30
2019-03-12T19:54:43.736Z,8.20
2019-03-12T19:57:14.124Z,8.20
2019-03-12T19:59:45.284Z,8.20
2019-03-12T20:02:17.751Z,8.20
2019-03-12T20:04:48.152Z,8.30
2019-03-12T20:07:18.715Z,8.30
2019-03-12T20:10:07.554Z,8.40
2019-03-12T20:13:16.359Z,8.40
2019-03-12T20:16:23.808Z,8.40
2019-03-12T20:19:31.176Z,8.50
2019-03-12T20:22:20.895Z,8.50
2019-03-12T20:25:46.769Z,8.50
2019-03-12T20:29:09.571Z,8.60
2019-03-12T20:32:20.545Z,8.60
2019-03-12T20:35:44.381Z,8.50
2019-03-12T20:39:04.852Z,8.40
2019-03-12T20:42:38.980Z,7.90
2019-03-12T20:45:45.464Z,7.10
2019-03-12T20:49:11.322Z,6.60
2019-03-12T20:52:16.981Z,6.30
2019-03-12T20:55:44.474Z,6.10
2019-03-12T20:58:56.644Z,5.90
2019-03-12T21:02:03.778Z,5.80
2019-03-12T21:05:10.236Z,5.80
2019-03-12T21:08:17.760Z,5.70
2019-03-12T21:11:18.104Z,5.70
2019-03-12T21:14:19.512Z,5.70
2019-03-12T21:17:25.334Z,5.60
2019-03-12T21:20:36.472Z,5.50
2019-03-12T21:23:48.399Z,5.50
2019-03-12T21:27:00.817Z,5.40
2019-03-12T21:29:45.846Z,5.40
2019-03-12T21:32:17.166Z,5.50
2019-03-12T21:34:47.826Z,5.50
2019-03-12T21:37:18.298Z,5.50
2019-03-12T21:39:54.977Z,5.50
2019-03-12T21:42:20.801Z,5.50
2019-03-12T21:44:52.034Z,5.60
2019-03-12T21:47:22.373Z,5.60
2019-03-12T21:49:52.853Z,5.60
2019-03-12T21:52:23.269Z,5.70
2019-03-12T21:54:53.590Z,5.70
2019-03-12T21:57:24.017Z,5.70
2019-03-12T21:59:54.339Z,5.70
2019-03-12T22:02:24.769Z,5.70
2019-03-12T22:10:19.030Z,5.60
2019-03-12T22:12:49.347Z,5.60
2019-03-12T22:15:19.621Z,5.50
2019-03-12T22:17:49.871Z,5.50
2019-03-12T22:20:20.212Z,5.50
2019-03-12T22:22:55.757Z,5.50
2019-03-12T22:25:26.428Z,5.50
2019-03-12T22:27:56.775Z,5.40
2019-03-12T22:30:28.466Z,5.40
2019-03-12T22:32:58.737Z,5.50
2019-03-12T22:35:28.993Z,5.50
2019-03-12T22:37:59.315Z,5.50
2019-03-12T22:40:29.644Z,5.60
2019-03-12T22:43:05.086Z,5.60
2019-03-12T22:45:41.067Z,5.60
2019-03-12T22:48:11.379Z,5.60
2019-03-12T22:50:41.781Z,5.50
2019-03-12T22:53:18.106Z,5.50
2019-03-12T22:56:12.469Z,5.60
2019-03-12T22:58:42.761Z,5.60
2019-03-12T23:01:31.158Z,5.60
2019-03-12T23:04:19.497Z,5.70
2019-03-12T23:07:07.452Z,5.70
2019-03-12T23:09:43.105Z,5.80
2019-03-12T23:12:16.971Z,5.80
2019-03-12T23:14:48.678Z,5.80
2019-03-12T23:17:19.879Z,6.20
2019-03-12T23:19:50.266Z,5.80
2019-03-12T23:22:20.857Z,5.80
2019-03-12T23:24:51.360Z,5.80
2019-03-12T23:27:21.724Z,5.80
2019-03-12T23:29:52.001Z,5.90
2019-03-12T23:32:22.405Z,5.80
2019-03-12T23:34:52.790Z,5.80
2019-03-12T23:37:23.121Z,5.50
2019-03-12T23:39:53.452Z,5.80
2019-03-12T23:42:24.025Z,5.80
2019-03-12T23:44:54.432Z,5.80
2019-03-12T23:47:24.754Z,5.80
2019-03-12T23:49:55.164Z,5.80
2019-03-12T23:52:25.474Z,5.80
2019-03-12T23:54:55.818Z,5.80
2019-03-12T23:57:27.029Z,5.80
2019-03-12T23:59:57.305Z,5.80
